createdAt,value
2017-09-20T00:00:06.688Z,11.33
2017-09-20T00:01:06.660Z,11.50
2017-09-20T00:02:59.612Z,11.70
2017-09-20T00:03:59.621Z,11.83
2017-09-20T00:05:52.593Z,11.69
2017-09-20T00:06:52.574Z,11.52
2017-09-20T00:08:45.566Z,11.45
2017-09-20T00:09:45.531Z,11.41
2017-09-20T00:11:38.502Z,11.51
2017-09-20T00:12:38.497Z,11.60
2017-09-20T00:14:31.477Z,11.47
2017-09-20T00:15:31.448Z,11.41
2017-09-20T00:17:24.487Z,11.25
2017-09-20T00:18:24.470Z,11.51
2017-09-20T00:20:17.485Z,11.70
2017-09-20T00:21:17.468Z,11.70
2017-09-20T00:23:10.428Z,11.81
2017-09-20T00:24:10.479Z,11.83
2017-09-20T00:26:03.451Z,11.87
2017-09-20T00:27:03.494Z,11.94
2017-09-20T00:28:56.360Z,12.02
2017-09-20T00:29:56.377Z,11.86
2017-09-20T00:31:49.399Z,11.70
2017-09-20T00:32:49.371Z,11.69
2017-09-20T00:34:42.272Z,11.45
2017-09-20T00:35:42.278Z,11.44
2017-09-20T00:37:35.332Z,11.66
2017-09-20T00:38:35.230Z,11.83
2017-09-20T00:40:28.279Z,11.72
2017-09-20T00:41:28.275Z,11.54
2017-09-20T00:43:21.254Z,11.51
2017-09-20T00:44:21.214Z,11.59
2017-09-20T00:46:14.204Z,11.57
2017-09-20T00:47:14.169Z,11.62
2017-09-20T00:49:07.111Z,11.62
2017-09-20T00:50:07.124Z,11.50
2017-09-20T00:52:00.104Z,11.66
2017-09-20T00:53:00.153Z,11.62
2017-09-20T00:54:53.023Z,11.62
2017-09-20T00:55:53.038Z,11.62
2017-09-20T00:57:46.035Z,11.91
2017-09-20T00:58:46.011Z,12.10
2017-09-20T01:00:39.112Z,12.02
2017-09-20T01:01:38.998Z,11.91
2017-09-20T01:03:31.986Z,11.78
2017-09-20T01:04:31.951Z,11.81
2017-09-20T01:06:24.913Z,11.81
2017-09-20T01:07:24.926Z,11.97
2017-09-20T01:09:17.938Z,12.21
2017-09-20T01:10:17.952Z,12.20
2017-09-20T01:12:10.894Z,12.31
2017-09-20T01:13:10.877Z,12.36
2017-09-20T01:15:04.797Z,12.18
2017-09-20T01:16:04.811Z,12.15
2017-09-20T01:17:57.795Z,12.32
2017-09-20T01:18:57.789Z,12.40
2017-09-20T01:20:50.717Z,12.39
2017-09-20T01:21:50.727Z,12.62
2017-09-20T01:23:43.692Z,12.54
2017-09-20T01:24:43.669Z,12.37
2017-09-20T01:26:36.606Z,12.29
2017-09-20T01:27:36.620Z,12.50
2017-09-20T01:29:29.595Z,12.40
2017-09-20T01:30:29.570Z,12.60
2017-09-20T01:32:22.519Z,12.27
2017-09-20T01:33:22.533Z,12.15
2017-09-20T01:35:15.523Z,12.03
2017-09-20T01:36:15.485Z,12.03
2017-09-20T01:38:08.443Z,11.83
2017-09-20T01:39:08.460Z,11.94
2017-09-20T01:41:01.425Z,11.97
2017-09-20T01:42:01.411Z,11.91
2017-09-20T01:43:54.330Z,12.13
2017-09-20T01:44:54.346Z,12.25
2017-09-20T01:46:47.322Z,12.64
2017-09-20T01:47:47.293Z,12.76
2017-09-20T01:49:40.231Z,12.85
2017-09-20T01:50:40.250Z,12.83
2017-09-20T01:52:33.216Z,12.79
2017-09-20T01:53:33.197Z,12.83
2017-09-20T01:55:26.132Z,12.98
2017-09-20T01:56:26.144Z,12.95
2017-09-20T01:58:19.626Z,12.95
2017-09-20T01:59:19.593Z,12.95
2017-09-20T02:01:13.519Z,12.93
2017-09-20T02:02:13.536Z,12.98
2017-09-20T02:04:06.496Z,13.01
2017-09-20T02:05:06.476Z,13.11
2017-09-20T02:06:59.420Z,13.04
2017-09-20T02:07:59.439Z,13.20
2017-09-20T02:09:52.423Z,13.13
2017-09-20T02:10:52.390Z,12.97
2017-09-20T02:12:45.328Z,13.15
2017-09-20T02:13:45.339Z,13.19
2017-09-20T02:15:38.317Z,13.04
2017-09-20T02:16:38.307Z,13.09
2017-09-20T02:18:31.258Z,13.11
2017-09-20T02:19:31.256Z,12.97
2017-09-20T02:21:24.230Z,13.25
2017-09-20T02:22:24.215Z,13.22
2017-09-20T02:24:17.154Z,13.23
2017-09-20T02:25:17.170Z,13.27
2017-09-20T02:27:10.132Z,12.98
2017-09-20T02:28:10.113Z,12.86
2017-09-20T02:30:03.053Z,13.05
2017-09-20T02:31:03.075Z,13.11
2017-09-20T02:32:56.066Z,13.27
2017-09-20T02:33:56.025Z,13.20
2017-09-20T02:35:49.002Z,12.73
2017-09-20T02:36:48.974Z,12.55
2017-09-20T02:38:41.910Z,12.58
2017-09-20T02:39:41.920Z,12.42
2017-09-20T02:41:34.909Z,12.65
2017-09-20T02:42:34.887Z,12.90
2017-09-20T02:44:27.823Z,13.11
2017-09-20T02:45:27.850Z,13.03
2017-09-20T02:47:20.818Z,13.16
2017-09-20T02:48:20.794Z,13.33
2017-09-20T02:50:13.743Z,13.31
2017-09-20T02:51:13.754Z,13.44
2017-09-20T02:53:06.728Z,13.25
2017-09-20T02:54:06.709Z,13.04
2017-09-20T02:55:59.648Z,12.82
2017-09-20T02:56:59.660Z,12.86
2017-09-20T02:58:52.637Z,13.16
2017-09-20T02:59:52.623Z,13.12
2017-09-20T03:01:45.580Z,12.85
2017-09-20T03:02:45.575Z,13.01
2017-09-20T03:04:38.560Z,13.18
2017-09-20T03:05:38.537Z,13.08
2017-09-20T03:07:32.021Z,13.08
2017-09-20T03:08:31.995Z,13.15
2017-09-20T03:10:24.933Z,13.15
2017-09-20T03:11:24.949Z,12.93
2017-09-20T03:13:17.928Z,13.12
2017-09-20T03:14:17.904Z,13.20
2017-09-20T03:16:10.856Z,13.25
2017-09-20T03:17:10.865Z,13.41
2017-09-20T03:19:03.845Z,13.50
2017-09-20T03:20:03.827Z,13.39
2017-09-20T03:21:57.773Z,13.49
2017-09-20T03:22:57.770Z,13.28
2017-09-20T03:24:50.749Z,13.12
2017-09-20T03:25:50.732Z,13.12
2017-09-20T03:27:43.677Z,13.09
2017-09-20T03:28:43.820Z,12.93
2017-09-20T03:30:36.655Z,12.80
2017-09-20T03:31:36.630Z,12.76
2017-09-20T03:33:29.580Z,12.97
2017-09-20T03:34:29.604Z,12.85
2017-09-20T03:36:22.579Z,12.86
2017-09-20T03:37:22.547Z,12.79
2017-09-20T03:39:15.551Z,12.64
2017-09-20T03:40:15.500Z,12.60
2017-09-20T03:42:08.450Z,13.09
2017-09-20T03:43:08.459Z,13.00
2017-09-20T03:45:01.451Z,13.12
2017-09-20T03:46:01.423Z,13.25
2017-09-20T03:47:54.369Z,13.11
2017-09-20T03:48:54.371Z,13.05
2017-09-20T03:50:47.333Z,13.12
2017-09-20T03:51:47.317Z,12.98
2017-09-20T03:53:40.266Z,12.82
2017-09-20T03:54:40.267Z,12.97
2017-09-20T03:56:33.243Z,12.86
2017-09-20T03:57:33.224Z,12.90
2017-09-20T03:59:26.156Z,12.42
2017-09-20T04:00:26.173Z,12.61
2017-09-20T04:02:19.150Z,12.75
2017-09-20T04:03:19.135Z,12.61
2017-09-20T04:05:12.078Z,12.55
2017-09-20T04:06:12.090Z,12.61
2017-09-20T04:08:05.064Z,13.00
2017-09-20T04:09:05.043Z,13.03
2017-09-20T04:10:57.981Z,13.05
2017-09-20T04:11:57.996Z,13.00
2017-09-20T04:13:50.961Z,12.97
2017-09-20T04:14:50.950Z,12.95
2017-09-20T04:16:43.934Z,12.64
2017-09-20T04:17:43.907Z,12.65
2017-09-20T04:19:36.850Z,12.91
2017-09-20T04:20:36.876Z,13.00
2017-09-20T04:22:30.351Z,13.15
2017-09-20T04:23:30.319Z,13.16
2017-09-20T04:25:23.256Z,13.13
2017-09-20T04:26:23.268Z,13.01
2017-09-20T04:28:16.283Z,13.01
2017-09-20T04:29:16.235Z,12.98
2017-09-20T04:31:09.679Z,12.93
2017-09-20T04:32:09.678Z,12.97
2017-09-20T04:34:02.648Z,13.15
2017-09-20T04:35:02.637Z,13.15
2017-09-20T04:36:55.578Z,12.95
2017-09-20T04:37:55.584Z,12.98
2017-09-20T04:39:48.559Z,12.91
2017-09-20T04:40:48.536Z,12.90
2017-09-20T04:42:41.971Z,12.85
2017-09-20T04:43:41.986Z,13.00
2017-09-20T04:45:34.971Z,13.01
2017-09-20T04:46:34.949Z,13.09
2017-09-20T04:48:27.958Z,13.15
2017-09-20T04:49:27.903Z,13.11
2017-09-20T04:51:20.849Z,13.09
2017-09-20T04:52:20.869Z,13.09
2017-09-20T04:54:13.841Z,13.16
2017-09-20T04:55:13.815Z,13.16
2017-09-20T04:57:06.755Z,13.18
2017-09-20T04:58:06.772Z,13.04
2017-09-20T04:59:59.753Z,12.76
2017-09-20T05:00:59.732Z,12.75
2017-09-20T05:02:52.677Z,12.65
2017-09-20T05:03:52.686Z,12.53
2017-09-20T05:05:45.662Z,12.46
2017-09-20T05:06:45.652Z,12.67
2017-09-20T05:08:38.611Z,13.00
2017-09-20T05:09:38.610Z,13.12
2017-09-20T05:11:32.082Z,13.23
2017-09-20T05:12:32.060Z,13.23
2017-09-20T05:14:24.998Z,13.28
2017-09-20T05:15:25.007Z,13.25
2017-09-20T05:17:17.984Z,13.22
2017-09-20T05:18:17.959Z,13.41
2017-09-20T05:20:10.893Z,13.44
2017-09-20T05:21:10.911Z,13.41
2017-09-20T05:23:03.897Z,13.49
2017-09-20T05:24:03.862Z,13.38
2017-09-20T05:25:57.306Z,13.25
2017-09-20T05:26:57.328Z,13.28
2017-09-20T05:28:50.306Z,13.31
2017-09-20T05:29:50.390Z,13.23
2017-09-20T05:31:43.278Z,13.05
2017-09-20T05:32:43.229Z,13.03
2017-09-20T05:34:36.168Z,13.31
2017-09-20T05:35:36.184Z,13.39
2017-09-20T05:37:29.152Z,13.49
2017-09-20T05:38:29.131Z,13.19
2017-09-20T05:40:22.083Z,13.33
2017-09-20T05:41:22.119Z,13.39
2017-09-20T05:43:15.064Z,13.60
2017-09-20T05:44:15.059Z,13.60
2017-09-20T05:46:07.988Z,13.68
2017-09-20T05:47:08.005Z,13.65
2017-09-20T05:49:00.982Z,13.65
2017-09-20T05:50:00.961Z,13.72
2017-09-20T05:51:53.898Z,13.59
2017-09-20T05:52:53.912Z,13.57
2017-09-20T05:54:46.888Z,13.79
2017-09-20T05:55:46.874Z,13.75
2017-09-20T05:57:40.329Z,13.92
2017-09-20T05:58:40.337Z,13.89
2017-09-20T06:00:33.814Z,13.92
2017-09-20T06:01:33.917Z,14.03
2017-09-20T06:03:26.736Z,13.85
2017-09-20T06:04:26.755Z,13.71
2017-09-20T06:06:19.730Z,13.57
2017-09-20T06:07:19.704Z,13.50
2017-09-20T06:09:12.711Z,13.68
2017-09-20T06:10:12.661Z,13.79
2017-09-20T06:12:05.595Z,13.92
2017-09-20T06:13:05.615Z,13.67
2017-09-20T06:14:58.591Z,13.59
2017-09-20T06:15:58.566Z,13.59
2017-09-20T06:17:51.514Z,13.86
2017-09-20T06:18:51.518Z,13.83
2017-09-20T06:20:44.497Z,13.72
2017-09-20T06:21:44.476Z,13.49
2017-09-20T06:23:37.418Z,13.54
2017-09-20T06:24:37.449Z,13.59
2017-09-20T06:26:30.906Z,13.86
2017-09-20T06:27:30.889Z,14.10
2017-09-20T06:29:23.828Z,14.11
2017-09-20T06:30:23.840Z,13.97
2017-09-20T06:32:16.807Z,14.00
2017-09-20T06:33:16.788Z,14.00
2017-09-20T06:35:09.739Z,13.96
2017-09-20T06:36:09.744Z,13.86
2017-09-20T06:38:02.716Z,13.99
2017-09-20T06:39:02.709Z,14.17
2017-09-20T06:40:55.644Z,14.03
2017-09-20T06:41:55.660Z,14.14
2017-09-20T06:43:48.644Z,14.26
2017-09-20T06:44:48.635Z,14.15
2017-09-20T06:46:41.620Z,14.07
2017-09-20T06:47:41.614Z,14.40
2017-09-20T06:49:34.531Z,14.15
2017-09-20T06:50:34.552Z,14.22
2017-09-20T06:52:28.514Z,14.40
2017-09-20T06:53:28.489Z,14.69
2017-09-20T06:55:21.427Z,14.77
2017-09-20T06:56:21.444Z,14.63
2017-09-20T06:58:14.426Z,14.81
2017-09-20T06:59:14.403Z,14.79
2017-09-20T07:01:07.342Z,14.45
2017-09-20T07:02:07.357Z,14.45
2017-09-20T07:04:00.332Z,14.55
2017-09-20T07:05:00.312Z,14.72
2017-09-20T07:06:53.248Z,14.48
2017-09-20T07:07:53.270Z,14.54
2017-09-20T07:09:46.252Z,14.82
2017-09-20T07:10:46.228Z,15.18
2017-09-20T07:12:39.155Z,15.40
2017-09-20T07:13:39.172Z,15.42
2017-09-20T07:15:32.165Z,15.75
2017-09-20T07:16:32.153Z,15.80
2017-09-20T07:18:25.114Z,17.16
2017-09-20T07:19:25.082Z,17.85
2017-09-20T07:21:18.020Z,18.58
2017-09-20T07:22:18.032Z,19.37
2017-09-20T07:24:11.040Z,19.15
2017-09-20T07:25:11.000Z,18.96
2017-09-20T07:27:03.940Z,19.02
2017-09-20T07:28:03.973Z,19.12
2017-09-20T07:29:56.939Z,18.93
2017-09-20T07:30:56.935Z,18.56
2017-09-20T07:32:49.872Z,18.71
2017-09-20T07:33:49.890Z,18.70
2017-09-20T07:35:42.866Z,17.87
2017-09-20T07:36:42.850Z,17.39
2017-09-20T07:38:35.806Z,17.23
2017-09-20T07:39:35.841Z,17.42
2017-09-20T07:41:28.839Z,17.68
2017-09-20T07:42:28.784Z,17.46
2017-09-20T07:44:21.728Z,16.86
2017-09-20T07:45:21.765Z,16.74
2017-09-20T07:47:14.756Z,16.89
2017-09-20T07:48:14.711Z,16.84
2017-09-20T07:50:07.670Z,16.84
2017-09-20T07:51:07.676Z,16.38
2017-09-20T07:53:00.655Z,16.29
2017-09-20T07:54:00.636Z,16.39
2017-09-20T07:55:53.629Z,16.35
2017-09-20T07:56:53.599Z,16.28
2017-09-20T07:58:46.556Z,16.68
2017-09-20T07:59:46.564Z,17.39
2017-09-20T08:01:39.557Z,18.88
2017-09-20T08:02:39.532Z,19.81
2017-09-20T08:04:32.469Z,21.15
2017-09-20T08:05:32.488Z,21.77
2017-09-20T08:07:25.465Z,21.64
2017-09-20T08:08:25.452Z,21.85
2017-09-20T08:10:18.407Z,21.00
2017-09-20T08:11:18.426Z,20.88
2017-09-20T08:13:11.424Z,19.79
2017-09-20T08:14:11.406Z,19.66
2017-09-20T08:16:04.355Z,18.74
2017-09-20T08:17:04.367Z,17.92
2017-09-20T08:18:58.344Z,18.29
2017-09-20T08:19:58.321Z,18.40
2017-09-20T08:21:51.276Z,18.07
2017-09-20T08:22:51.292Z,18.19
2017-09-20T08:24:44.276Z,18.71
2017-09-20T08:25:44.258Z,18.45
2017-09-20T08:27:37.239Z,18.01
2017-09-20T08:28:37.217Z,17.92
2017-09-20T08:30:31.173Z,17.89
2017-09-20T08:31:31.202Z,17.46
2017-09-20T08:33:24.189Z,17.42
2017-09-20T08:34:24.153Z,17.44
2017-09-20T08:36:17.110Z,16.64
2017-09-20T08:37:17.116Z,16.78
2017-09-20T08:39:10.103Z,17.26
2017-09-20T08:40:10.085Z,17.31
2017-09-20T08:42:03.036Z,17.02
2017-09-20T08:43:03.049Z,16.64
2017-09-20T08:44:56.023Z,16.81
2017-09-20T08:45:55.998Z,17.02
2017-09-20T08:47:48.934Z,17.02
2017-09-20T08:48:48.950Z,17.19
2017-09-20T08:50:41.925Z,17.27
2017-09-20T08:51:41.900Z,17.48
2017-09-20T08:53:34.860Z,17.27
2017-09-20T08:54:34.881Z,17.01
2017-09-20T08:56:27.857Z,16.86
2017-09-20T08:57:27.837Z,16.71
2017-09-20T08:59:20.823Z,16.68
2017-09-20T09:00:20.807Z,16.86
2017-09-20T09:02:13.766Z,16.99
2017-09-20T09:03:13.768Z,16.97
2017-09-20T09:05:06.766Z,16.99
2017-09-20T09:06:06.737Z,16.87
2017-09-20T09:07:59.697Z,17.15
2017-09-20T09:08:59.706Z,17.16
2017-09-20T09:10:52.697Z,16.94
2017-09-20T09:11:52.672Z,16.93
2017-09-20T09:13:46.115Z,16.99
2017-09-20T09:14:46.127Z,16.76
2017-09-20T09:16:39.113Z,16.90
2017-09-20T09:17:39.089Z,16.97
2017-09-20T09:19:32.028Z,17.24
2017-09-20T09:20:32.062Z,17.29
2017-09-20T09:22:25.031Z,17.48
2017-09-20T09:23:25.020Z,17.80
2017-09-20T09:25:18.010Z,17.11
2017-09-20T09:26:17.978Z,16.99
2017-09-20T09:28:10.915Z,17.16
2017-09-20T09:29:10.927Z,17.41
2017-09-20T09:31:03.915Z,17.15
2017-09-20T09:32:03.893Z,17.24
2017-09-20T09:33:56.834Z,17.65
2017-09-20T09:34:56.850Z,17.95
2017-09-20T09:36:49.830Z,18.00
2017-09-20T09:37:49.811Z,17.85
2017-09-20T09:39:42.765Z,17.85
2017-09-20T09:40:42.770Z,18.10
2017-09-20T09:42:35.745Z,18.25
2017-09-20T09:43:35.732Z,18.40
2017-09-20T09:45:28.691Z,18.40
2017-09-20T09:46:28.694Z,18.45
2017-09-20T09:48:21.684Z,18.01
2017-09-20T09:49:21.670Z,18.05
2017-09-20T09:51:14.607Z,18.26
2017-09-20T09:52:14.621Z,18.11
2017-09-20T09:54:07.605Z,18.01
2017-09-20T09:55:07.589Z,17.98
2017-09-20T09:57:01.555Z,17.60
2017-09-20T09:58:01.539Z,17.89
2017-09-20T09:59:54.478Z,17.78
2017-09-20T10:00:54.488Z,17.79
2017-09-20T10:02:47.456Z,17.63
2017-09-20T10:03:47.442Z,17.34
2017-09-20T10:05:40.377Z,17.20
2017-09-20T10:06:40.397Z,17.19
2017-09-20T10:08:33.390Z,17.26
2017-09-20T10:09:33.367Z,17.46
2017-09-20T10:11:26.331Z,17.36
2017-09-20T10:12:26.329Z,17.46
2017-09-20T10:14:19.317Z,17.80
2017-09-20T10:15:19.288Z,17.86
2017-09-20T10:17:12.236Z,17.80
2017-09-20T10:18:12.259Z,17.65
2017-09-20T10:20:05.242Z,17.24
2017-09-20T10:21:05.234Z,16.99
2017-09-20T10:22:58.228Z,16.96
2017-09-20T10:23:58.199Z,17.09
2017-09-20T10:25:51.137Z,17.33
2017-09-20T10:26:51.161Z,17.26
2017-09-20T10:28:44.137Z,17.05
2017-09-20T10:29:44.119Z,17.14
2017-09-20T10:31:38.052Z,17.19
2017-09-20T10:32:38.060Z,17.15
2017-09-20T10:34:31.050Z,17.23
2017-09-20T10:35:31.028Z,17.14
2017-09-20T10:37:23.982Z,16.76
2017-09-20T10:38:24.023Z,16.96
2017-09-20T10:40:16.999Z,16.84
2017-09-20T10:41:16.952Z,16.64
2017-09-20T10:43:09.895Z,17.05
2017-09-20T10:44:09.908Z,17.14
2017-09-20T10:46:02.894Z,17.30
2017-09-20T10:47:02.867Z,17.29
2017-09-20T10:48:55.819Z,17.51
2017-09-20T10:49:55.820Z,17.45
2017-09-20T10:51:48.821Z,17.70
2017-09-20T10:52:48.832Z,17.89
2017-09-20T10:54:41.774Z,17.78
2017-09-20T10:55:41.729Z,17.98
2017-09-20T10:57:35.665Z,18.25
2017-09-20T10:58:35.679Z,18.16
2017-09-20T11:00:28.661Z,17.57
2017-09-20T11:01:28.640Z,17.49
2017-09-20T11:03:21.587Z,17.52
2017-09-20T11:04:21.603Z,17.15
2017-09-20T11:06:14.601Z,17.14
2017-09-20T11:07:14.581Z,17.27
2017-09-20T11:08:14.610Z,17.36
2017-09-20T11:09:14.623Z,17.48
2017-09-20T11:10:14.656Z,17.54
2017-09-20T11:11:14.672Z,17.39
2017-09-20T11:12:14.687Z,16.94
2017-09-20T11:13:14.713Z,17.24
2017-09-20T11:14:14.730Z,17.29
2017-09-20T11:15:14.755Z,17.46
2017-09-20T11:16:14.772Z,17.60
2017-09-20T11:17:14.793Z,17.71
2017-09-20T11:18:14.814Z,18.05
2017-09-20T11:19:14.842Z,18.01
2017-09-20T11:20:14.869Z,17.80
2017-09-20T11:21:14.875Z,18.04
2017-09-20T11:22:14.900Z,17.98
2017-09-20T11:23:14.920Z,17.90
2017-09-20T11:24:14.946Z,18.10
2017-09-20T11:25:14.962Z,17.90
2017-09-20T11:26:14.989Z,17.92
2017-09-20T11:27:15.019Z,17.54
2017-09-20T11:28:15.039Z,17.30
2017-09-20T11:29:15.048Z,17.24
2017-09-20T11:30:15.077Z,17.48
2017-09-20T11:31:15.103Z,17.23
2017-09-20T11:32:15.116Z,17.24
2017-09-20T11:33:15.137Z,17.67
2017-09-20T11:34:15.158Z,17.83
2017-09-20T11:35:15.188Z,17.65
2017-09-20T11:36:15.205Z,17.72
2017-09-20T11:37:15.224Z,17.70
2017-09-20T11:38:15.240Z,17.79
2017-09-20T11:39:15.260Z,18.01
2017-09-20T11:40:15.288Z,17.94
2017-09-20T11:41:15.319Z,18.08
2017-09-20T11:42:15.328Z,18.04
2017-09-20T11:43:15.347Z,17.82
2017-09-20T11:44:15.377Z,17.85
2017-09-20T11:45:15.404Z,17.52
2017-09-20T11:46:15.417Z,17.74
2017-09-20T11:47:15.440Z,17.67
2017-09-20T11:48:15.457Z,17.57
2017-09-20T11:49:15.485Z,17.64
2017-09-20T11:50:15.503Z,17.41
2017-09-20T11:51:15.529Z,17.51
2017-09-20T11:52:15.546Z,17.46
2017-09-20T11:53:15.567Z,17.65
2017-09-20T11:54:15.584Z,17.87
2017-09-20T11:55:15.610Z,18.03
2017-09-20T11:56:15.631Z,18.38
2017-09-20T11:57:15.655Z,18.49
2017-09-20T11:58:15.671Z,18.22
2017-09-20T11:59:15.694Z,18.26
2017-09-20T12:00:15.721Z,18.29
2017-09-20T12:01:15.731Z,18.75
2017-09-20T12:02:15.759Z,18.70
2017-09-20T12:03:15.781Z,18.29
2017-09-20T12:04:15.800Z,18.41
2017-09-20T12:05:15.825Z,18.41
2017-09-20T12:06:15.853Z,18.55
2017-09-20T12:07:15.879Z,18.33
2017-09-20T12:08:15.893Z,18.19
2017-09-20T12:09:15.908Z,17.83
2017-09-20T12:10:15.931Z,18.11
2017-09-20T12:11:15.961Z,18.25
2017-09-20T12:12:15.976Z,18.52
2017-09-20T12:13:16.003Z,18.15
2017-09-20T12:14:16.017Z,18.03
2017-09-20T12:15:16.045Z,18.13
2017-09-20T12:16:16.064Z,17.90
2017-09-20T12:17:16.093Z,17.82
2017-09-20T12:18:16.103Z,18.01
2017-09-20T12:19:16.126Z,18.11
2017-09-20T12:20:16.151Z,18.05
2017-09-20T12:21:16.176Z,18.25
2017-09-20T12:22:16.192Z,18.28
2017-09-20T12:23:16.217Z,18.05
2017-09-20T12:24:16.238Z,18.26
2017-09-20T12:25:16.261Z,18.49
2017-09-20T12:26:16.279Z,18.08
2017-09-20T12:27:16.301Z,18.25
2017-09-20T12:28:16.327Z,18.38
2017-09-20T12:29:16.345Z,18.22
2017-09-20T12:30:16.370Z,18.43
2017-09-20T12:31:16.394Z,18.58
2017-09-20T12:32:16.426Z,18.28
2017-09-20T12:33:16.433Z,18.43
2017-09-20T12:34:16.460Z,18.38
2017-09-20T12:35:16.479Z,18.07
2017-09-20T12:36:16.502Z,18.00
2017-09-20T12:37:16.522Z,18.18
2017-09-20T12:38:16.554Z,18.19
2017-09-20T12:39:16.566Z,18.04
2017-09-20T12:40:16.590Z,18.26
2017-09-20T12:41:16.607Z,18.33
2017-09-20T12:42:16.633Z,18.15
2017-09-20T12:43:16.659Z,18.28
2017-09-20T12:44:16.676Z,18.55
2017-09-20T12:45:16.698Z,18.26
2017-09-20T12:46:16.718Z,18.78
2017-09-20T12:47:16.742Z,18.80
2017-09-20T12:48:16.765Z,18.70
2017-09-20T12:49:16.786Z,18.68
2017-09-20T12:50:16.806Z,19.02
2017-09-20T12:51:16.828Z,19.18
2017-09-20T12:52:16.849Z,19.48
2017-09-20T12:53:16.885Z,19.29
2017-09-20T12:54:16.914Z,19.22
2017-09-20T12:55:16.919Z,19.36
2017-09-20T12:56:16.941Z,19.48
2017-09-20T12:57:16.962Z,18.83
2017-09-20T12:58:17.000Z,18.84
2017-09-20T12:59:17.009Z,19.02
2017-09-20T13:00:17.033Z,19.11
2017-09-20T13:01:17.057Z,19.49
2017-09-20T13:02:17.083Z,19.24
2017-09-20T13:03:17.100Z,19.47
2017-09-20T13:04:17.133Z,19.48
2017-09-20T13:05:17.144Z,19.70
2017-09-20T13:06:17.166Z,19.52
2017-09-20T13:07:17.189Z,19.15
2017-09-20T13:08:17.216Z,19.18
2017-09-20T13:09:17.236Z,19.14
2017-09-20T13:10:17.261Z,19.59
2017-09-20T13:11:17.276Z,19.77
2017-09-20T13:12:17.296Z,19.45
2017-09-20T13:13:17.328Z,19.45
2017-09-20T13:14:17.350Z,19.52
2017-09-20T13:15:17.365Z,19.70
2017-09-20T13:16:17.389Z,19.36
2017-09-20T13:17:17.427Z,19.14
2017-09-20T13:18:17.432Z,19.08
2017-09-20T13:19:17.455Z,18.99
2017-09-20T13:20:17.484Z,19.15
2017-09-20T13:21:17.499Z,18.75
2017-09-20T13:22:17.534Z,18.84
2017-09-20T13:23:17.543Z,19.08
2017-09-20T13:24:17.567Z,19.12
2017-09-20T13:25:17.588Z,18.89
2017-09-20T13:26:17.609Z,18.89
2017-09-20T13:27:17.650Z,18.99
2017-09-20T13:28:17.654Z,18.98
2017-09-20T13:29:17.685Z,18.41
2017-09-20T13:30:17.699Z,18.28
2017-09-20T13:31:17.725Z,18.41
2017-09-20T13:32:17.740Z,18.31
2017-09-20T13:33:17.765Z,18.45
2017-09-20T13:34:17.791Z,18.74
2017-09-20T13:35:17.821Z,18.89
2017-09-20T13:36:17.830Z,18.86
2017-09-20T13:37:17.856Z,18.80
2017-09-20T13:38:17.883Z,18.75
2017-09-20T13:39:17.897Z,18.66
2017-09-20T13:40:17.921Z,18.22
2017-09-20T13:41:17.945Z,18.43
2017-09-20T13:42:17.967Z,18.66
2017-09-20T13:43:17.981Z,18.59
2017-09-20T13:44:18.008Z,18.71
2017-09-20T13:45:18.027Z,18.55
2017-09-20T13:46:18.048Z,18.22
2017-09-20T13:47:18.069Z,18.23
2017-09-20T13:48:18.094Z,18.26
2017-09-20T13:49:18.129Z,18.33
2017-09-20T13:50:18.134Z,18.18
2017-09-20T13:51:18.164Z,18.03
2017-09-20T13:52:18.183Z,18.05
2017-09-20T13:53:18.202Z,18.08
2017-09-20T13:54:18.228Z,18.18
2017-09-20T13:55:18.250Z,18.15
2017-09-20T13:56:18.265Z,18.37
2017-09-20T13:57:18.291Z,18.26
2017-09-20T13:58:18.320Z,18.05
2017-09-20T13:59:18.340Z,17.87
2017-09-20T14:00:18.352Z,17.87
2017-09-20T14:01:18.373Z,17.85
2017-09-20T14:02:18.403Z,17.87
2017-09-20T14:03:18.418Z,18.07
2017-09-20T14:04:18.437Z,18.26
2017-09-20T14:05:18.467Z,17.82
2017-09-20T14:06:18.484Z,17.51
2017-09-20T14:07:18.513Z,17.67
2017-09-20T14:08:18.525Z,17.26
2017-09-20T14:09:18.552Z,17.56
2017-09-20T14:10:18.569Z,17.63
2017-09-20T14:11:18.586Z,17.39
2017-09-20T14:12:18.614Z,17.46
2017-09-20T14:13:18.637Z,17.54
2017-09-20T14:14:18.656Z,17.67
2017-09-20T14:15:18.677Z,17.85
2017-09-20T14:16:18.703Z,17.87
2017-09-20T14:17:18.718Z,18.03
2017-09-20T14:18:18.738Z,18.13
2017-09-20T14:19:18.765Z,18.19
2017-09-20T14:20:18.780Z,18.16
2017-09-20T14:21:18.822Z,17.67
2017-09-20T14:22:18.828Z,17.86
2017-09-20T14:23:18.846Z,17.97
2017-09-20T14:24:18.866Z,18.33
2017-09-20T14:25:18.885Z,18.26
2017-09-20T14:26:18.914Z,17.86
2017-09-20T14:27:18.946Z,17.94
2017-09-20T14:28:18.956Z,17.45
2017-09-20T14:29:18.972Z,17.26
2017-09-20T14:30:19.002Z,17.30
2017-09-20T14:31:19.021Z,17.64
2017-09-20T14:32:19.043Z,17.83
2017-09-20T14:33:19.061Z,17.46
2017-09-20T14:34:19.079Z,17.97
2017-09-20T14:35:19.105Z,18.28
2017-09-20T14:36:19.124Z,18.59
2017-09-20T14:37:19.148Z,18.35
2017-09-20T14:38:19.169Z,18.45
2017-09-20T14:39:19.188Z,18.45
2017-09-20T14:40:19.209Z,18.59
2017-09-20T14:41:19.242Z,18.75
2017-09-20T14:42:19.259Z,18.40
2017-09-20T14:43:19.283Z,18.70
2017-09-20T14:44:19.303Z,18.55
2017-09-20T14:45:19.327Z,18.49
2017-09-20T14:46:19.357Z,18.45
2017-09-20T14:47:19.364Z,18.59
2017-09-20T14:48:19.381Z,18.56
2017-09-20T14:49:19.411Z,18.65
2017-09-20T14:50:19.428Z,18.74
2017-09-20T14:51:19.462Z,18.66
2017-09-20T14:52:19.473Z,18.37
2017-09-20T14:53:19.492Z,18.05
2017-09-20T14:54:19.512Z,18.03
2017-09-20T14:55:19.535Z,18.13
2017-09-20T14:56:19.557Z,18.59
2017-09-20T14:57:19.580Z,18.74
2017-09-20T14:58:19.600Z,18.74
2017-09-20T14:59:19.626Z,18.83
2017-09-20T15:00:19.643Z,18.50
2017-09-20T15:01:19.671Z,18.28
2017-09-20T15:02:19.689Z,18.53
2017-09-20T15:03:19.709Z,18.58
2017-09-20T15:04:19.730Z,18.62
2017-09-20T15:05:19.754Z,18.77
2017-09-20T15:06:19.773Z,18.74
2017-09-20T15:07:19.805Z,18.26
2017-09-20T15:08:19.819Z,18.08
2017-09-20T15:09:19.835Z,18.26
2017-09-20T15:10:19.855Z,18.18
2017-09-20T15:11:19.890Z,18.35
2017-09-20T15:12:19.900Z,18.34
2017-09-20T15:13:19.925Z,18.59
2017-09-20T15:14:19.949Z,18.41
2017-09-20T15:15:19.967Z,17.92
2017-09-20T15:16:19.989Z,18.16
2017-09-20T15:17:20.008Z,18.05
2017-09-20T15:18:20.032Z,18.05
2017-09-20T15:19:20.052Z,18.20
2017-09-20T15:20:20.077Z,18.38
2017-09-20T15:21:20.100Z,18.49
2017-09-20T15:22:20.123Z,18.23
2017-09-20T15:23:20.141Z,17.97
2017-09-20T15:24:20.162Z,18.07
2017-09-20T15:25:20.182Z,18.37
2017-09-20T15:26:20.203Z,18.18
2017-09-20T15:27:20.240Z,17.82
2017-09-20T15:28:20.251Z,17.46
2017-09-20T15:29:20.271Z,17.29
2017-09-20T15:30:20.295Z,17.44
2017-09-20T15:31:20.319Z,17.24
2017-09-20T15:32:20.333Z,17.15
2017-09-20T15:33:20.359Z,16.97
2017-09-20T15:34:20.384Z,17.22
2017-09-20T15:35:20.419Z,17.44
2017-09-20T15:36:20.425Z,17.72
2017-09-20T15:37:20.446Z,17.82
2017-09-20T15:38:20.462Z,17.44
2017-09-20T15:39:20.488Z,17.33
2017-09-20T15:40:20.511Z,17.57
2017-09-20T15:41:20.531Z,17.67
2017-09-20T15:42:20.549Z,17.51
2017-09-20T15:43:20.582Z,17.46
2017-09-20T15:44:20.588Z,17.15
2017-09-20T15:45:20.609Z,16.93
2017-09-20T15:46:20.630Z,16.84
2017-09-20T15:47:20.657Z,16.79
2017-09-20T15:48:20.678Z,16.84
2017-09-20T15:49:20.692Z,17.12
2017-09-20T15:50:20.724Z,17.41
2017-09-20T15:51:20.741Z,17.51
2017-09-20T15:52:20.768Z,17.48
2017-09-20T15:53:20.784Z,17.64
2017-09-20T15:54:20.800Z,17.65
2017-09-20T15:55:20.821Z,17.42
2017-09-20T15:56:20.840Z,17.46
2017-09-20T15:57:20.870Z,17.46
2017-09-20T15:58:20.886Z,17.71
2017-09-20T15:59:20.915Z,17.65
2017-09-20T16:00:20.930Z,17.80
2017-09-20T16:01:20.963Z,17.63
2017-09-20T16:02:20.972Z,17.34
2017-09-20T16:03:20.993Z,17.38
2017-09-20T16:04:21.011Z,17.33
2017-09-20T16:05:21.045Z,17.42
2017-09-20T16:06:21.058Z,17.56
2017-09-20T16:07:21.081Z,17.48
2017-09-20T16:08:21.102Z,17.27
2017-09-20T16:09:21.123Z,17.14
2017-09-20T16:10:21.143Z,17.19
2017-09-20T16:11:21.184Z,17.34
2017-09-20T16:12:21.184Z,17.51
2017-09-20T16:13:21.209Z,17.42
2017-09-20T16:14:21.236Z,17.16
2017-09-20T16:15:21.245Z,17.19
2017-09-20T16:16:21.265Z,17.01